Time;durP1;ratioP1;P1;durP2;ratioP2;P2;SDS_P1;SDS_P2;PMS_P1;PMS_P2;Temp;Humidity;BMP_temperature;BMP_pressure;BME280_temperature;BME280_humidity;BME280_pressure;Samples;Min_cycle;Max_cycle;Signal;HPM_P1;HPM_P2
2022/03/10 00:01:32;;;;;;;14.70;13.50;;;;;;;0.07;68.06;95048.78;5116959;28;20196;-63
2022/03/10 00:03:59;;;;;;;14.45;13.30;;;;;;;0.02;67.64;95049.63;5117805;28;20502;-63
2022/03/10 00:06:25;;;;;;;13.73;12.63;;;;;;;0.01;67.00;95056.16;5117217;28;20192;-63
2022/03/10 00:08:52;;;;;;;14.13;13.02;;;;;;;-0.03;67.70;95055.13;5116838;28;20601;-63
2022/03/10 00:11:20;;;;;;;14.82;13.63;;;;;;;-0.05;68.30;95054.59;5117566;28;20261;-64
2022/03/10 00:13:47;;;;;;;14.05;12.98;;;;;;;-0.06;67.95;95064.63;5116007;28;20207;-64
2022/03/10 00:16:14;;;;;;;14.20;13.02;;;;;;;-0.04;67.45;95056.19;5117259;28;20200;-64
2022/03/10 00:18:41;;;;;;;14.38;13.25;;;;;;;-0.05;67.74;95058.09;5117639;28;20194;-63
2022/03/10 00:21:08;;;;;;;14.38;13.18;;;;;;;-0.06;68.08;95058.41;5116638;28;20180;-63
2022/03/10 00:23:35;;;;;;;14.10;13.00;;;;;;;-0.05;67.82;95051.88;5117658;28;20618;-63
2022/03/10 00:26:02;;;;;;;14.63;13.38;;;;;;;-0.03;67.19;95049.69;5117236;28;20286;-63
2022/03/10 00:28:30;;;;;;;14.38;13.18;;;;;;;-0.03;67.68;95044.28;5117467;28;20202;-63
2022/03/10 00:30:57;;;;;;;14.50;13.20;;;;;;;-0.08;67.09;95045.13;5116627;28;20219;-63
2022/03/10 00:33:23;;;;;;;15.20;13.98;;;;;;;-0.06;67.48;95045.66;5116847;28;20620;-63
2022/03/10 00:35:50;;;;;;;14.02;12.93;;;;;;;-0.08;67.45;95047.03;5117579;28;20195;-63
2022/03/10 00:38:17;;;;;;;13.70;12.60;;;;;;;-0.10;67.17;95047.31;5117115;28;20184;-63
2022/03/10 00:40:44;;;;;;;13.05;11.95;;;;;;;-0.10;67.02;95041.09;5116789;28;20609;-63
2022/03/10 00:43:12;;;;;;;13.38;12.23;;;;;;;-0.12;67.59;95037.84;5116849;28;20250;-63
2022/03/10 00:45:40;;;;;;;12.77;11.82;;;;;;;-0.10;66.72;95036.47;5116795;28;20195;-64
2022/03/10 00:48:09;;;;;;;13.20;12.10;;;;;;;-0.08;66.60;95036.97;5117247;28;20198;-64
2022/03/10 00:50:36;;;;;;;12.60;11.63;;;;;;;-0.10;66.27;95036.47;5116881;28;20265;-64
2022/03/10 00:53:02;;;;;;;12.48;11.48;;;;;;;-0.14;67.06;95032.72;5115885;28;20203;-63
2022/03/10 00:55:30;;;;;;;12.55;11.52;;;;;;;-0.12;66.58;95029.72;5117006;28;20191;-63
2022/03/10 00:57:56;;;;;;;12.63;11.60;;;;;;;-0.16;66.62;95028.69;5116076;28;20200;-63
2022/03/10 01:00:25;;;;;;;13.05;12.05;;;;;;;-0.16;66.71;95024.06;5116721;28;20184;-63
2022/03/10 01:02:53;;;;;;;13.32;12.23;;;;;;;-0.18;67.20;95031.69;5116813;28;20191;-63
2022/03/10 01:05:20;;;;;;;12.95;11.95;;;;;;;-0.18;67.33;95028.13;5116593;28;20207;-63
2022/03/10 01:07:47;;;;;;;13.40;12.30;;;;;;;-0.24;66.84;95021.97;5116340;28;20180;-63
2022/03/10 01:10:15;;;;;;;13.07;12.07;;;;;;;-0.30;67.00;95026.63;5116572;28;20191;-63
2022/03/10 01:12:44;;;;;;;13.15;12.05;;;;;;;-0.27;67.77;95019.81;5115341;28;20535;-63
2022/03/10 01:15:12;;;;;;;12.57;11.60;;;;;;;-0.27;67.26;95017.13;5116106;28;20180;-63
2022/03/10 01:17:39;;;;;;;12.07;11.07;;;;;;;-0.30;67.21;95020.41;5117155;28;20502;-63
2022/03/10 01:20:08;;;;;;;12.57;11.57;;;;;;;-0.32;67.18;95022.59;5116411;28;20184;-63
2022/03/10 01:22:35;;;;;;;12.60;11.60;;;;;;;-0.34;67.52;95024.78;5116353;28;20180;-63
2022/03/10 01:25:02;;;;;;;12.57;11.57;;;;;;;-0.38;66.84;95012.88;5116313;28;20233;-63
2022/03/10 01:27:29;;;;;;;12.43;11.52;;;;;;;-0.39;67.50;95025.63;5115240;28;20188;-63
2022/03/10 01:29:56;;;;;;;12.23;11.32;;;;;;;-0.36;67.18;95021.56;5115146;28;20204;-62
2022/03/10 01:32:23;;;;;;;13.15;12.07;;;;;;;-0.33;67.49;95024.50;5115105;28;20223;-62
2022/03/10 01:34:50;;;;;;;12.90;11.90;;;;;;;-0.33;66.49;95019.09;5116084;28;20188;-63
2022/03/10 01:37:18;;;;;;;13.38;12.38;;;;;;;-0.36;67.15;95018.84;5116256;28;20180;-63
2022/03/10 01:39:45;;;;;;;13.02;11.93;;;;;;;-0.40;67.43;95017.78;5116062;28;20176;-63
2022/03/10 01:42:12;;;;;;;12.75;11.68;;;;;;;-0.39;67.08;95017.50;5116143;28;20234;-63
2022/03/10 01:44:39;;;;;;;13.43;12.38;;;;;;;-0.37;67.74;95020.72;5115148;28;20281;-63
2022/03/10 01:47:07;;;;;;;13.63;12.52;;;;;;;-0.37;67.42;95015.31;5115995;28;20191;-63
2022/03/10 01:49:34;;;;;;;13.50;12.40;;;;;;;-0.34;67.16;95019.34;5114955;28;20316;-63
2022/03/10 01:52:01;;;;;;;13.40;12.30;;;;;;;-0.33;67.63;95018.25;5115148;28;20211;-63
2022/03/10 01:54:29;;;;;;;13.40;12.40;;;;;;;-0.37;67.26;95018.00;5115796;28;20198;-63
2022/03/10 01:56:56;;;;;;;13.07;12.07;;;;;;;-0.35;67.64;95012.31;5114945;28;20206;-63
2022/03/10 01:59:23;;;;;;;14.02;12.93;;;;;;;-0.34;67.68;95016.66;5114524;28;20192;-63
2022/03/10 02:01:49;;;;;;;13.07;12.07;;;;;;;-0.34;66.96;95014.75;5115709;28;20184;-63
2022/03/10 02:04:16;;;;;;;13.45;12.45;;;;;;;-0.41;67.06;95027.00;5114847;28;20210;-63
2022/03/10 02:06:43;;;;;;;13.25;12.15;;;;;;;-0.41;67.19;95016.97;5114857;28;20202;-63
2022/03/10 02:11:56;;;;;;;13.82;12.75;;;;;;;-0.42;67.43;95020.78;5115605;28;20196;-64
2022/03/10 02:17:21;;;;;;;13.73;12.63;;;;;;;-0.45;67.11;95020.53;5115370;28;20180;-64
2022/03/10 02:19:49;;;;;;;13.98;12.88;;;;;;;-0.49;66.34;95012.97;5115843;28;20182;-64
2022/03/10 02:22:17;;;;;;;14.15;13.00;;;;;;;-0.57;66.68;95020.91;5115688;28;20191;-64
2022/03/10 02:24:45;;;;;;;14.43;13.25;;;;;;;-0.64;67.46;95015.81;5115650;28;20198;-64
2022/03/10 02:27:16;;;;;;;14.43;13.32;;;;;;;-0.70;67.46;95025.06;5114705;28;20206;-64
2022/03/10 02:29:43;;;;;;;14.02;12.93;;;;;;;-0.73;67.57;95028.34;5114834;28;20612;-64
2022/03/10 02:32:11;;;;;;;14.73;13.63;;;;;;;-0.74;68.00;95024.81;5115052;28;20200;-63
2022/03/10 02:34:38;;;;;;;14.95;13.75;;;;;;;-0.76;67.95;95037.06;5115423;28;20188;-63
2022/03/10 02:37:05;;;;;;;15.10;13.90;;;;;;;-0.78;68.19;95034.59;5117411;28;20208;-63
2022/03/10 02:39:34;;;;;;;14.98;13.88;;;;;;;-0.79;68.06;95032.19;5119463;28;20184;-63
2022/03/10 02:42:01;;;;;;;15.88;14.68;;;;;;;-0.85;67.83;95033.31;5118341;28;20200;-63
2022/03/10 02:44:28;;;;;;;15.73;14.52;;;;;;;-0.95;67.69;95030.66;5119436;28;20263;-63
2022/03/10 02:46:55;;;;;;;15.73;14.32;;;;;;;-1.02;68.30;95030.97;5119373;28;20191;-63
2022/03/10 02:49:22;;;;;;;16.00;14.65;;;;;;;-1.00;68.29;95039.66;5119232;28;20184;-63
2022/03/10 02:51:48;;;;;;;16.63;15.32;;;;;;;-1.00;68.14;95031.53;5119240;28;20207;-63
2022/03/10 02:54:15;;;;;;;16.25;14.95;;;;;;;-0.98;68.39;95035.56;5119215;28;20184;-63
2022/03/10 02:56:44;;;;;;;16.48;15.15;;;;;;;-0.97;69.03;95034.47;5119211;28;20240;-63
2022/03/10 02:59:11;;;;;;;17.05;15.65;;;;;;;-0.97;68.88;95037.19;5118223;28;20195;-63
2022/03/10 03:01:38;;;;;;;16.80;15.43;;;;;;;-0.92;68.33;95036.34;5119351;27;20191;-63
2022/03/10 03:04:05;;;;;;;16.55;15.27;;;;;;;-0.87;68.07;95043.59;5119106;28;20190;-63
2022/03/10 03:06:32;;;;;;;17.08;15.68;;;;;;;-0.85;68.29;95038.72;5118827;28;20183;-63
2022/03/10 03:08:59;;;;;;;17.67;16.15;;;;;;;-0.81;68.40;95047.91;5118702;28;20191;-63
2022/03/10 03:11:26;;;;;;;21.33;19.40;;;;;;;-0.79;68.44;95049.25;5118782;28;20188;-63
2022/03/10 03:13:54;;;;;;;23.25;21.15;;;;;;;-0.66;68.34;95046.97;5118160;28;20486;-63
2022/03/10 03:16:21;;;;;;;23.42;21.42;;;;;;;-0.64;67.58;95045.63;5119103;28;20188;-63
2022/03/10 03:18:47;;;;;;;24.60;22.42;;;;;;;-0.61;67.71;95046.97;5118042;28;20211;-63
2022/03/10 03:21:14;;;;;;;26.17;23.98;;;;;;;-0.53;67.13;95052.56;5117948;28;20201;-63
2022/03/10 03:23:41;;;;;;;26.63;24.23;;;;;;;-0.56;66.98;95042.28;5118533;27;20180;-63
2022/03/10 03:26:08;;;;;;;22.23;20.23;;;;;;;-0.53;66.15;95044.44;5117847;28;20214;-63
2022/03/10 03:28:35;;;;;;;20.27;18.48;;;;;;;-0.62;63.80;95043.41;5117846;28;20196;-63
2022/03/10 03:31:03;;;;;;;16.70;15.10;;;;;;;-0.86;61.31;95048.75;5118364;28;20515;-63
2022/03/10 03:33:30;;;;;;;16.80;15.13;;;;;;;-0.92;61.17;95055.28;5118493;28;20230;-64
2022/03/10 03:35:57;;;;;;;15.48;14.07;;;;;;;-0.84;61.08;95057.38;5117614;28;20196;-64
2022/03/10 03:38:24;;;;;;;14.82;13.52;;;;;;;-0.90;59.88;95061.25;5117260;28;20220;-64
2022/03/10 03:40:51;;;;;;;14.00;12.88;;;;;;;-0.97;59.80;95060.75;5118017;28;20176;-63
2022/03/10 03:43:18;;;;;;;13.60;12.40;;;;;;;-1.16;59.21;95055.19;5118445;28;20236;-64
2022/03/10 03:45:45;;;;;;;12.90;11.80;;;;;;;-1.11;59.18;95055.13;5118353;28;20180;-63
2022/03/10 03:48:13;;;;;;;14.35;12.95;;;;;;;-1.09;58.97;95055.69;5116464;28;20196;-63
2022/03/10 03:50:40;;;;;;;14.77;13.38;;;;;;;-1.07;58.66;95068.91;5117081;28;20196;-63
2022/03/10 03:53:07;;;;;;;16.15;14.52;;;;;;;-1.10;57.70;95062.16;5117884;28;20207;-63
2022/03/10 03:55:34;;;;;;;16.25;14.57;;;;;;;-1.15;58.00;95072.22;5117238;28;20203;-63
2022/03/10 03:58:00;;;;;;;16.30;14.63;;;;;;;-1.21;57.35;95072.22;5118154;28;20191;-63
2022/03/10 04:00:27;;;;;;;18.08;16.08;;;;;;;-1.27;58.22;95076.06;5117338;28;20203;-63
2022/03/10 04:02:54;;;;;;;11.30;10.20;;;;;;;-1.26;57.83;95079.59;5117237;28;20202;-63
2022/03/10 04:05:23;;;;;;;9.70;8.90;;;;;;;-1.32;56.58;95094.22;5117051;28;20206;-63
2022/03/10 04:07:50;;;;;;;9.70;8.90;;;;;;;-1.38;56.81;95089.91;5117590;28;20252;-64
2022/03/10 04:10:17;;;;;;;9.77;8.98;;;;;;;-1.38;56.74;95089.91;5117057;28;20207;-63
2022/03/10 04:12:44;;;;;;;8.88;8.18;;;;;;;-1.41;56.88;95088.59;5117936;28;20203;-63
2022/03/10 04:15:11;;;;;;;9.05;8.25;;;;;;;-1.37;57.00;95086.94;5117517;28;20180;-63
2022/03/10 04:17:38;;;;;;;10.75;9.85;;;;;;;-1.31;56.95;95096.66;5117757;27;20190;-63
2022/03/10 04:20:08;;;;;;;11.10;10.10;;;;;;;-1.30;56.92;95090.16;5116647;28;20200;-63
2022/03/10 04:22:37;;;;;;;11.07;10.07;;;;;;;-1.27;56.70;95092.31;5116317;28;20674;-63
2022/03/10 04:25:05;;;;;;;11.60;10.60;;;;;;;-1.32;56.69;95089.59;5117751;27;20176;-64
2022/03/10 04:27:32;;;;;;;9.90;9.00;;;;;;;-1.38;56.53;95085.31;5116435;28;20244;-64
2022/03/10 04:29:58;;;;;;;9.48;8.57;;;;;;;-1.44;56.61;95091.84;5116375;28;20234;-64
2022/03/10 04:32:25;;;;;;;9.00;8.30;;;;;;;-1.44;56.89;95097.25;5116864;28;20199;-64
2022/03/10 04:34:52;;;;;;;8.30;7.60;;;;;;;-1.38;56.97;95104.28;5117262;28;20196;-65
2022/03/10 04:37:19;;;;;;;8.32;7.65;;;;;;;-1.41;57.37;95096.69;5116393;28;20214;-66
2022/03/10 04:39:47;;;;;;;8.85;8.18;;;;;;;-1.48;57.61;95099.69;5116701;28;20198;-66
2022/03/10 04:42:14;;;;;;;9.63;8.75;;;;;;;-1.51;57.86;95097.53;5115946;28;20536;-65
2022/03/10 04:44:41;;;;;;;8.50;7.85;;;;;;;-1.48;57.36;95101.59;5116091;28;20624;-64
2022/03/10 04:47:07;;;;;;;8.05;7.35;;;;;;;-1.53;56.79;95102.41;5115734;28;20579;-64
2022/03/10 04:49:34;;;;;;;8.80;8.10;;;;;;;-1.53;56.75;95099.69;5116773;28;20188;-63
2022/03/10 04:52:01;;;;;;;9.48;8.68;;;;;;;-1.59;56.57;95114.34;5116850;28;20215;-63
2022/03/10 04:54:28;;;;;;;10.50;9.60;;;;;;;-1.62;56.85;95112.19;5116067;28;20206;-63
2022/03/10 04:56:56;;;;;;;14.10;12.70;;;;;;;-1.55;56.79;95114.59;5116903;28;20539;-64
2022/03/10 04:59:25;;;;;;;14.40;13.10;;;;;;;-1.55;56.97;95118.13;5116293;28;20190;-63
2022/03/10 05:01:52;;;;;;;11.38;10.18;;;;;;;-1.57;57.12;95119.47;5116766;28;20241;-64
2022/03/10 05:04:18;;;;;;;7.85;7.13;;;;;;;-1.56;56.53;95129.19;5116995;28;20184;-64
2022/03/10 05:06:45;;;;;;;8.85;8.02;;;;;;;-1.52;56.89;95136.50;5115660;28;20191;-64
2022/03/10 05:09:12;;;;;;;9.23;8.32;;;;;;;-1.60;56.73;95138.94;5116500;28;20195;-64
2022/03/10 05:11:39;;;;;;;9.70;8.80;;;;;;;-1.61;56.62;95146.25;5115906;28;20192;-64
2022/03/10 05:14:07;;;;;;;8.25;7.55;;;;;;;-1.57;56.37;95146.50;5116296;28;20211;-63
2022/03/10 05:16:34;;;;;;;8.05;7.32;;;;;;;-1.61;55.88;95153.56;5115598;28;20207;-68
2022/03/10 05:19:01;;;;;;;7.50;6.90;;;;;;;-1.76;56.82;95163.31;5116329;28;20188;-64
2022/03/10 05:21:28;;;;;;;6.97;6.47;;;;;;;-1.73;56.44;95165.47;5116332;28;20197;-63
2022/03/10 05:23:55;;;;;;;6.70;6.20;;;;;;;-1.84;57.17;95165.78;5115664;28;20195;-63
2022/03/10 05:26:21;;;;;;;7.05;6.55;;;;;;;-2.05;57.03;95175.78;5117030;28;20184;-63
2022/03/10 05:28:48;;;;;;;7.20;6.60;;;;;;;-2.12;57.43;95186.88;5115397;28;20208;-63
2022/03/10 05:31:16;;;;;;;7.18;6.57;;;;;;;-2.06;57.46;95188.50;5115706;28;20180;-63
2022/03/10 05:33:43;;;;;;;7.65;7.05;;;;;;;-2.02;57.79;95192.28;5115297;28;20227;-62
2022/03/10 05:36:10;;;;;;;7.72;7.03;;;;;;;-1.88;57.32;95189.84;5116002;28;20187;-62
2022/03/10 05:38:37;;;;;;;7.88;7.18;;;;;;;-1.80;56.94;95192.00;5116027;28;20202;-62
2022/03/10 05:41:05;;;;;;;10.85;9.95;;;;;;;-1.77;56.88;95202.28;5115757;28;20176;-62
2022/03/10 05:43:32;;;;;;;13.30;12.00;;;;;;;-1.73;56.69;95195.22;5115821;28;20264;-63
2022/03/10 05:45:58;;;;;;;15.27;13.68;;;;;;;-1.68;56.70;95199.81;5114730;28;20191;-62
2022/03/10 05:48:28;;;;;;;18.58;16.67;;;;;;;-1.63;56.67;95190.91;5115656;28;20180;-63
2022/03/10 05:50:55;;;;;;;17.27;15.57;;;;;;;-1.60;56.61;95201.97;5115899;28;20198;-63
2022/03/10 05:53:22;;;;;;;17.52;15.82;;;;;;;-1.51;56.96;95202.22;5114732;28;20218;-63
2022/03/10 05:55:49;;;;;;;12.20;11.20;;;;;;;-1.45;56.23;95198.44;5114876;28;20192;-63
2022/03/10 05:58:15;;;;;;;10.23;9.43;;;;;;;-1.34;56.48;95210.06;5115950;28;20183;-62
2022/03/10 06:00:42;;;;;;;7.05;6.45;;;;;;;-1.40;55.69;95209.25;5115588;28;20215;-62
2022/03/10 06:03:09;;;;;;;7.82;7.22;;;;;;;-1.50;56.31;95210.06;5114905;28;20203;-64
2022/03/10 06:05:37;;;;;;;8.52;7.78;;;;;;;-1.34;56.29;95205.44;5115637;28;20180;-65
2022/03/10 06:08:05;;;;;;;8.85;8.15;;;;;;;-1.27;56.62;95207.84;5114443;28;20200;-65
2022/03/10 06:10:32;;;;;;;10.60;9.70;;;;;;;-1.25;56.24;95209.19;5114218;28;20191;-65
2022/03/10 06:12:59;;;;;;;10.88;9.98;;;;;;;-1.25;56.29;95209.19;5115356;28;20214;-65
2022/03/10 06:15:27;;;;;;;9.02;8.32;;;;;;;-1.27;56.25;95218.66;5115384;28;20195;-64
2022/03/10 06:17:54;;;;;;;8.52;7.90;;;;;;;-1.19;56.01;95220.03;5114964;28;20179;-64
2022/03/10 06:20:20;;;;;;;8.63;7.93;;;;;;;-1.27;55.96;95218.66;5114177;28;20200;-64
2022/03/10 06:22:49;;;;;;;9.10;8.40;;;;;;;-1.31;55.96;95215.72;5115499;28;20179;-64
2022/03/10 06:25:15;;;;;;;10.05;9.25;;;;;;;-1.26;56.31;95220.31;5114477;28;20198;-64
2022/03/10 06:27:42;;;;;;;10.13;9.30;;;;;;;-1.14;56.35;95226.22;5115319;28;20196;-64
2022/03/10 06:30:10;;;;;;;8.82;8.13;;;;;;;-1.02;56.14;95228.63;5117036;28;20192;-65
2022/03/10 06:32:37;;;;;;;9.18;8.48;;;;;;;-0.98;55.48;95227.00;5118044;28;20200;-64
2022/03/10 06:35:05;;;;;;;10.02;9.20;;;;;;;-0.92;55.31;95235.91;5123152;28;20194;-64
2022/03/10 06:37:32;;;;;;;9.68;8.88;;;;;;;-0.99;54.32;95239.69;5125404;28;20219;-64
2022/03/10 06:40:02;;;;;;;8.65;8.02;;;;;;;-1.17;52.99;95234.88;5116040;28;20214;-64
2022/03/10 06:42:31;;;;;;;18.88;17.75;;;;;;;-1.24;52.54;95242.47;5115476;28;20207;-65
2022/03/10 06:44:58;;;;;;;13.05;12.18;;;;;;;-1.27;51.40;95243.03;5118008;28;20183;-65
2022/03/10 06:47:25;;;;;;;7.25;6.65;;;;;;;-1.27;50.75;95240.31;5119196;28;20203;-65
2022/03/10 06:49:52;;;;;;;5.63;5.22;;;;;;;-1.46;50.75;95249.00;5121820;28;20619;-65
2022/03/10 06:52:20;;;;;;;4.88;4.47;;;;;;;-1.31;49.67;95244.66;5120773;28;20220;-64
2022/03/10 06:54:47;;;;;;;5.15;4.75;;;;;;;-1.19;49.40;95253.31;5118271;28;20589;-65
2022/03/10 06:57:15;;;;;;;3.40;3.20;;;;;;;-1.36;46.83;95250.91;5115861;28;20279;-64
2022/03/10 06:59:42;;;;;;;4.07;3.78;;;;;;;-1.34;47.58;95256.84;5115167;28;20539;-65
2022/03/10 07:02:08;;;;;;;4.30;3.90;;;;;;;-1.27;48.03;95251.13;5119214;28;20196;-65
2022/03/10 07:04:35;;;;;;;4.18;3.88;;;;;;;-1.01;47.86;95266.25;5123111;28;20195;-64
2022/03/10 07:07:02;;;;;;;3.50;3.30;;;;;;;-1.14;46.62;95269.53;5121923;28;20196;-64
2022/03/10 07:09:29;;;;;;;3.70;3.40;;;;;;;-1.29;46.69;95267.66;5117280;28;20187;-64
2022/03/10 07:11:56;;;;;;;4.70;4.40;;;;;;;-1.08;47.82;95263.03;5118284;28;20196;-64
2022/03/10 07:14:24;;;;;;;4.50;4.20;;;;;;;-1.28;46.21;95268.47;5120024;28;20280;-64
2022/03/10 07:16:51;;;;;;;4.78;4.47;;;;;;;-1.10;47.96;95264.38;5120544;28;20570;-64
2022/03/10 07:19:18;;;;;;;5.57;5.18;;;;;;;-0.80;48.64;95264.31;5117853;28;20180;-64
2022/03/10 07:21:45;;;;;;;6.90;6.30;;;;;;;-0.53;48.41;95266.63;5119076;28;20195;-64
2022/03/10 07:24:12;;;;;;;6.55;5.97;;;;;;;-0.68;47.60;95277.53;5121128;28;20187;-65
2022/03/10 07:26:39;;;;;;;7.18;6.57;;;;;;;-0.82;48.66;95271.88;5118910;28;20192;-65
2022/03/10 07:29:06;;;;;;;7.22;6.63;;;;;;;-0.97;48.39;95280.88;5117775;28;20199;-65
2022/03/10 07:31:34;;;;;;;6.40;5.90;;;;;;;-1.09;48.90;95279.53;5118444;28;20183;-65
2022/03/10 07:34:01;;;;;;;6.28;5.80;;;;;;;-1.27;48.74;95281.75;5117718;28;20280;-65
2022/03/10 07:36:29;;;;;;;6.53;5.95;;;;;;;-1.23;49.12;95276.59;5123318;28;20196;-65
2022/03/10 07:38:56;;;;;;;5.60;5.20;;;;;;;-1.17;48.50;95275.50;5121184;28;20199;-65
2022/03/10 07:41:23;;;;;;;5.43;5.03;;;;;;;-1.14;48.41;95288.47;5117236;28;20196;-65
2022/03/10 07:43:50;;;;;;;6.55;6.05;;;;;;;-0.91;48.74;95283.53;5123028;28;20243;-65
2022/03/10 07:46:22;;;;;;;8.20;7.50;;;;;;;-0.87;49.33;95284.63;5117159;28;20203;-64
2022/03/10 07:48:51;;;;;;;6.07;5.68;;;;;;;-0.91;47.86;95297.09;5116991;28;20214;-66
2022/03/10 07:51:18;;;;;;;6.53;6.00;;;;;;;-0.98;49.01;95289.28;5116819;28;20649;-65
2022/03/10 07:53:45;;;;;;;7.30;6.68;;;;;;;-0.93;49.13;95288.44;5117561;28;20222;-65
2022/03/10 07:56:12;;;;;;;8.13;7.43;;;;;;;-0.56;49.56;95288.84;5117290;28;20564;-65
2022/03/10 07:58:38;;;;;;;13.50;12.15;;;;;;;-0.28;50.18;95294.69;5119221;28;20187;-65
2022/03/10 08:01:05;;;;;;;12.60;11.32;;;;;;;-0.28;48.98;95300.13;5116952;28;20605;-65
2022/03/10 08:03:32;;;;;;;12.68;11.48;;;;;;;-0.15;49.40;95304.91;5117902;28;20202;-65
2022/03/10 08:06:00;;;;;;;9.05;8.25;;;;;;;-0.20;50.76;95298.72;5118126;28;20192;-65
2022/03/10 08:08:27;;;;;;;8.48;7.68;;;;;;;-0.03;49.09;95301.88;5117125;28;20585;-65
2022/03/10 08:10:54;;;;;;;10.02;9.13;;;;;;;0.06;49.51;95299.38;5120010;28;20198;-65
2022/03/10 08:13:25;;;;;;;8.40;7.70;;;;;;;0.10;49.13;95303.16;5116584;28;20226;-65
2022/03/10 08:15:55;;;;;;;7.30;6.70;;;;;;;0.34;48.82;95290.50;5119227;28;20195;-65
2022/03/10 08:18:23;;;;;;;7.50;6.90;;;;;;;0.29;47.75;95303.28;5119673;28;20283;-65
2022/03/10 08:20:50;;;;;;;8.18;7.45;;;;;;;0.17;48.46;95304.44;5117504;28;20238;-65
2022/03/10 08:23:18;;;;;;;11.38;10.38;;;;;;;0.07;49.00;95301.00;5117367;28;20184;-65
2022/03/10 08:25:46;;;;;;;7.65;7.05;;;;;;;-0.23;47.45;95302.78;5117713;27;20242;-65
2022/03/10 08:28:13;;;;;;;8.25;7.55;;;;;;;-0.11;48.88;95302.44;5117511;28;20192;-65
2022/03/10 08:30:40;;;;;;;6.38;5.78;;;;;;;-0.14;47.89;95308.44;5117205;28;20196;-65
2022/03/10 08:33:07;;;;;;;10.45;9.45;;;;;;;-0.23;49.39;95310.91;5115830;28;20631;-65
2022/03/10 08:35:33;;;;;;;9.32;8.43;;;;;;;-0.37;48.96;95310.72;5116783;28;20188;-65
2022/03/10 08:38:00;;;;;;;6.78;6.28;;;;;;;-0.37;48.07;95320.75;5117195;28;20196;-65
2022/03/10 08:40:29;;;;;;;5.25;4.85;;;;;;;-0.53;47.95;95315.38;5116482;28;20574;-65
2022/03/10 08:42:56;;;;;;;5.20;4.80;;;;;;;-0.68;48.83;95323.56;5116898;28;20240;-65
2022/03/10 08:45:25;;;;;;;5.63;5.13;;;;;;;-0.85;49.57;95307.63;5116073;28;20195;-65
2022/03/10 08:47:53;;;;;;;5.55;5.15;;;;;;;-0.89;49.58;95314.69;5116093;28;20575;-65
2022/03/10 08:50:20;;;;;;;5.90;5.40;;;;;;;-0.82;49.38;95325.25;5117273;28;20188;-65
2022/03/10 08:52:47;;;;;;;5.43;4.97;;;;;;;-0.82;49.07;95312.50;5116612;28;20180;-65
2022/03/10 08:55:13;;;;;;;6.10;5.60;;;;;;;-0.63;49.08;95320.84;5115561;28;20664;-64
2022/03/10 08:57:42;;;;;;;6.53;5.80;;;;;;;-0.60;47.77;95327.63;5116846;28;20199;-64
2022/03/10 09:00:11;;;;;;;5.38;4.97;;;;;;;-0.70;47.46;95320.31;5116568;28;20198;-65
2022/03/10 09:02:40;;;;;;;6.60;6.00;;;;;;;-0.79;46.88;95319.28;5115955;28;20207;-64
2022/03/10 09:05:08;;;;;;;5.72;5.22;;;;;;;-0.76;48.36;95314.13;5115663;28;20187;-64
2022/03/10 09:07:35;;;;;;;7.18;6.47;;;;;;;-0.81;46.89;95316.81;5116576;28;20256;-64
2022/03/10 09:10:02;;;;;;;8.60;7.68;;;;;;;-0.94;47.46;95314.72;5117037;28;20285;-64
2022/03/10 09:12:29;;;;;;;5.68;5.18;;;;;;;-0.70;46.88;95311.38;5117078;28;20188;-64
2022/03/10 09:14:57;;;;;;;10.85;9.95;;;;;;;-0.58;46.20;95314.59;5115829;28;20550;-64
2022/03/10 09:17:24;;;;;;;12.07;10.88;;;;;;;-0.30;45.93;95313.94;5115453;28;20546;-64
2022/03/10 09:19:51;;;;;;;9.07;8.35;;;;;;;-0.30;44.92;95313.13;5116567;28;20183;-64
2022/03/10 09:22:18;;;;;;;5.32;4.93;;;;;;;-0.44;44.99;95309.38;5115465;28;20199;-64
2022/03/10 09:24:45;;;;;;;7.50;6.80;;;;;;;-0.24;46.25;95314.72;5115972;28;20520;-64
2022/03/10 09:27:12;;;;;;;10.55;9.48;;;;;;;0.02;47.12;95311.88;5115345;28;20274;-64
2022/03/10 09:29:39;;;;;;;9.23;8.35;;;;;;;0.12;45.94;95314.53;5115901;28;20191;-64
2022/03/10 09:32:08;;;;;;;5.40;5.00;;;;;;;0.32;43.66;95313.56;5115217;28;20205;-64
2022/03/10 09:34:34;;;;;;;4.20;3.90;;;;;;;0.46;43.98;95301.78;5115013;28;20541;-64
2022/03/10 09:37:01;;;;;;;4.50;4.10;;;;;;;0.60;44.35;95303.88;5116115;28;20469;-64
2022/03/10 09:39:28;;;;;;;3.42;3.20;;;;;;;0.83;43.45;95292.25;5114966;28;20202;-64
2022/03/10 09:41:56;;;;;;;6.28;5.65;;;;;;;0.85;41.45;95295.50;5115772;28;20203;-65
2022/03/10 09:44:23;;;;;;;10.32;9.32;;;;;;;0.86;44.33;95305.25;5114514;28;20231;-65
2022/03/10 09:46:51;;;;;;;10.38;9.38;;;;;;;0.78;41.67;95308.59;5115389;28;20200;-65
2022/03/10 09:49:20;;;;;;;6.88;6.28;;;;;;;0.90;43.79;95302.78;5114936;28;20196;-65
2022/03/10 09:51:48;;;;;;;5.47;4.97;;;;;;;0.70;39.82;95306.50;5114948;28;20210;-65
2022/03/10 09:54:15;;;;;;;3.65;3.38;;;;;;;0.81;42.12;95305.31;5116390;28;20200;-64
2022/03/10 09:56:42;;;;;;;5.38;4.60;;;;;;;0.89;40.26;95309.31;5116384;28;20218;-65
2022/03/10 09:59:10;;;;;;;4.25;3.85;;;;;;;0.97;40.83;95305.97;5116006;28;20184;-64
2022/03/10 10:01:37;;;;;;;5.00;4.60;;;;;;;0.83;42.75;95315.88;5116215;28;20199;-65
2022/03/10 10:04:04;;;;;;;5.95;5.45;;;;;;;1.16;42.13;95312.31;5117139;28;20224;-64
2022/03/10 10:06:32;;;;;;;5.25;4.85;;;;;;;1.43;42.54;95302.78;5116143;28;20252;-65
2022/03/10 10:08:59;;;;;;;6.05;5.55;;;;;;;1.77;42.51;95304.56;5114853;28;20203;-65
2022/03/10 10:11:32;;;;;;;5.78;5.28;;;;;;;1.75;40.90;95304.06;5114889;28;20191;-64
2022/03/10 10:13:59;;;;;;;6.28;5.78;;;;;;;1.75;40.96;95301.34;5114770;28;20223;-64
2022/03/10 10:16:27;;;;;;;8.23;7.43;;;;;;;1.68;40.02;95313.38;5115494;28;20199;-64
2022/03/10 10:18:58;;;;;;;7.28;6.57;;;;;;;1.30;39.73;95319.78;5115118;28;20191;-64
2022/03/10 10:21:26;;;;;;;6.97;6.38;;;;;;;1.03;39.61;95317.63;5114559;28;20622;-64
2022/03/10 10:23:55;;;;;;;8.25;6.85;;;;;;;1.11;39.71;95314.28;5114345;28;20200;-64
2022/03/10 10:26:28;;;;;;;9.30;8.50;;;;;;;1.14;39.46;95325.38;5115610;28;20191;-64
2022/03/10 10:28:55;;;;;;;6.85;5.70;;;;;;;1.39;40.44;95321.59;5114288;28;20617;-64
2022/03/10 10:31:24;;;;;;;4.40;4.00;;;;;;;1.86;41.72;95310.97;5115241;28;20333;-65
2022/03/10 10:34:00;;;;;;;5.07;4.57;;;;;;;2.40;41.01;95312.41;5115931;28;20268;-66
2022/03/10 10:36:29;;;;;;;4.50;4.20;;;;;;;2.85;40.88;95310.06;5115411;28;20183;-65
2022/03/10 10:38:58;;;;;;;4.55;4.15;;;;;;;2.58;38.04;95306.13;5115335;28;20190;-66
2022/03/10 10:41:26;;;;;;;4.35;3.95;;;;;;;2.39;39.86;95313.50;5115117;28;20172;-66
2022/03/10 10:43:55;;;;;;;4.53;4.10;;;;;;;2.57;40.03;95315.38;5114576;28;20220;-65
2022/03/10 10:46:29;;;;;;;5.75;5.25;;;;;;;2.49;37.89;95316.06;5115021;28;20620;-65
2022/03/10 10:48:57;;;;;;;4.80;4.40;;;;;;;2.45;39.52;95306.06;5114527;28;20195;-65
2022/03/10 10:51:29;;;;;;;4.78;4.38;;;;;;;2.72;39.46;95303.44;5115279;28;20202;-65
2022/03/10 10:53:57;;;;;;;3.50;3.30;;;;;;;2.91;38.28;95300.69;5115279;28;20198;-65
2022/03/10 10:56:24;;;;;;;4.30;3.97;;;;;;;3.04;37.99;95299.91;5115087;28;20526;-66
2022/03/10 10:58:54;;;;;;;4.50;4.10;;;;;;;2.58;37.34;95292.53;5119123;28;20180;-69
2022/03/10 11:01:31;;;;;;;5.43;5.03;;;;;;;2.49;38.47;95293.47;5118274;28;20184;-66
2022/03/10 11:03:58;;;;;;;4.97;4.57;;;;;;;2.41;40.19;95303.94;5119132;28;20211;-65
2022/03/10 11:06:25;;;;;;;5.28;4.78;;;;;;;2.43;39.78;95292.75;5119084;28;20202;-66
2022/03/10 11:08:52;;;;;;;5.95;5.45;;;;;;;1.79;38.33;95294.22;5119034;28;20184;-66
2022/03/10 11:11:21;;;;;;;5.53;4.50;;;;;;;1.43;38.17;95298.16;5118872;28;20199;-65
2022/03/10 11:13:48;;;;;;;6.75;5.68;;;;;;;1.63;39.21;95301.72;5118852;28;20183;-65
2022/03/10 11:16:16;;;;;;;5.50;5.00;;;;;;;2.14;39.43;95292.91;5118811;28;20195;-65
2022/03/10 11:18:48;;;;;;;4.80;4.40;;;;;;;2.54;37.78;95304.28;5118292;28;20516;-65
2022/03/10 11:21:30;;;;;;;4.60;4.20;;;;;;;2.51;37.36;95305.69;5117128;28;20200;-65
2022/03/10 11:24:06;;;;;;;5.32;4.50;;;;;;;2.00;37.19;95297.44;5117594;28;20211;-65
2022/03/10 11:26:38;;;;;;;5.20;4.70;;;;;;;1.99;38.29;95293.91;5118315;28;20194;-65
2022/03/10 11:29:06;;;;;;;6.43;5.85;;;;;;;2.05;40.29;95292.75;5118038;28;20230;-64
2022/03/10 11:31:34;;;;;;;5.90;5.40;;;;;;;2.29;40.72;95289.97;5118199;28;20260;-66
2022/03/10 11:34:01;;;;;;;5.03;4.57;;;;;;;1.92;39.30;95290.75;5116992;28;20204;-65
2022/03/10 11:36:30;;;;;;;5.30;4.90;;;;;;;1.72;39.74;95293.75;5117264;28;20198;-66